createdAt,value
2019-02-04T00:01:49.325Z,102212.84
2019-02-04T00:04:22.003Z,102213.92
2019-02-04T00:06:56.983Z,102209.71
2019-02-04T00:09:28.599Z,102213.77
2019-02-04T00:15:06.443Z,102207.56
2019-02-04T00:18:02.049Z,102209.94
2019-02-04T00:21:02.089Z,102208.31
2019-02-04T00:24:35.005Z,102208.08
2019-02-04T00:27:36.125Z,102207.38
2019-02-04T00:30:33.793Z,102221.53
2019-02-04T00:33:09.256Z,102220.03
2019-02-04T00:35:43.049Z,102210.33
2019-02-04T00:38:15.238Z,102217.70
2019-02-04T00:40:48.831Z,102228.97
2019-02-04T00:43:40.943Z,102228.80
2019-02-04T00:46:38.305Z,102237.52
2019-02-04T00:49:23.492Z,102237.31
2019-02-04T00:51:55.640Z,102244.96
2019-02-04T00:54:26.711Z,102244.05
2019-02-04T00:57:06.862Z,102245.33
2019-02-04T00:59:37.110Z,102252.20
2019-02-04T01:02:11.215Z,102257.37
2019-02-04T01:04:42.687Z,102260.13
2019-02-04T01:07:13.331Z,102262.70
2019-02-04T01:09:48.787Z,102264.55
2019-02-04T01:12:26.666Z,102269.33
2019-02-04T01:15:21.557Z,102261.39
2019-02-04T01:18:03.619Z,102262.52
2019-02-04T01:20:49.022Z,102265.45
2019-02-04T01:23:20.765Z,102262.42
2019-02-04T01:25:55.126Z,102273.18
2019-02-04T01:28:27.174Z,102271.41
2019-02-04T01:30:57.541Z,102277.03
2019-02-04T01:33:31.682Z,102275.28
2019-02-04T01:36:05.823Z,102271.87
2019-02-04T01:39:10.602Z,102282.08
2019-02-04T01:41:46.005Z,102279.41
2019-02-04T01:44:19.863Z,102281.16
2019-02-04T01:47:01.399Z,102279.33
2019-02-04T01:49:33.362Z,102276.98
2019-02-04T01:52:09.352Z,102274.00
2019-02-04T01:54:43.438Z,102277.94
2019-02-04T01:57:20.043Z,102277.94
2019-02-04T01:59:59.169Z,102281.61
2019-02-04T02:02:35.613Z,102283.20
2019-02-04T02:05:12.882Z,102279.33
2019-02-04T02:07:49.084Z,102289.82
2019-02-04T02:10:25.286Z,102296.28
2019-02-04T02:13:01.263Z,102291.41
2019-02-04T02:15:46.239Z,102295.66
2019-02-04T02:18:25.127Z,102301.35
2019-02-04T02:21:12.946Z,102292.14
2019-02-04T02:24:11.301Z,102291.41
2019-02-04T02:26:44.275Z,102286.38
2019-02-04T02:29:20.061Z,102286.88
2019-02-04T02:31:55.041Z,102282.97
2019-02-04T02:34:30.239Z,102274.21
2019-02-04T02:37:02.495Z,102271.19
2019-02-04T02:39:34.029Z,102265.96
2019-02-04T02:42:06.752Z,102265.39
2019-02-04T02:44:43.151Z,102270.66
2019-02-04T02:47:15.180Z,102269.80
2019-02-04T02:49:48.048Z,102261.11
2019-02-04T02:52:18.249Z,102261.46
2019-02-04T02:54:51.178Z,102256.34
2019-02-04T02:57:26.997Z,102254.57
2019-02-04T03:00:05.043Z,102257.70
2019-02-04T03:02:45.933Z,102268.25
2019-02-04T03:05:20.968Z,102270.20
2019-02-04T03:07:56.473Z,102266.52
2019-02-04T03:10:35.098Z,102271.48
2019-02-04T03:13:15.154Z,102275.13
2019-02-04T03:15:48.837Z,102283.16
2019-02-04T03:18:19.850Z,102279.33
2019-02-04T03:20:58.687Z,102279.48
2019-02-04T03:23:33.044Z,102283.86
2019-02-04T03:26:09.924Z,102279.75
2019-02-04T03:28:44.377Z,102284.95
2019-02-04T03:31:19.165Z,102279.69
2019-02-04T03:33:57.243Z,102282.03
2019-02-04T03:36:27.727Z,102280.20
2019-02-04T03:39:00.936Z,102290.04
2019-02-04T03:41:34.869Z,102289.73
2019-02-04T03:44:07.225Z,102291.24
2019-02-04T03:46:42.356Z,102295.30
2019-02-04T03:49:14.008Z,102298.29
2019-02-04T03:51:47.282Z,102295.19
2019-02-04T03:54:19.803Z,102306.04
2019-02-04T03:56:51.505Z,102308.95
2019-02-04T03:59:22.059Z,102302.23
2019-02-04T04:01:57.820Z,102303.56
2019-02-04T04:04:29.829Z,102302.16
2019-02-04T04:07:03.083Z,102298.95
2019-02-04T04:09:38.896Z,102304.95
2019-02-04T04:12:37.410Z,102292.05
2019-02-04T04:15:13.063Z,102297.69
2019-02-04T04:18:18.613Z,102301.73
2019-02-04T04:20:56.307Z,102305.03
2019-02-04T04:23:57.382Z,102315.30
2019-02-04T04:26:42.632Z,102308.84
2019-02-04T04:29:17.604Z,102306.09
2019-02-04T04:31:56.467Z,102302.70
2019-02-04T04:34:35.763Z,102310.27
2019-02-04T04:37:08.341Z,102297.58
2019-02-04T04:39:39.189Z,102297.94
2019-02-04T04:42:09.943Z,102291.13
2019-02-04T04:44:43.092Z,102291.83
2019-02-04T04:47:21.303Z,102294.76
2019-02-04T04:49:56.425Z,102304.95
2019-02-04T04:52:44.239Z,102300.53
2019-02-04T04:55:21.381Z,102292.30
2019-02-04T05:01:02.731Z,102294.63
2019-02-04T05:03:33.738Z,102287.91
2019-02-04T05:06:04.721Z,102285.38
2019-02-04T05:08:38.452Z,102283.52
2019-02-04T05:11:09.635Z,102281.36
2019-02-04T05:13:44.056Z,102282.97
2019-02-04T05:16:15.618Z,102286.49
2019-02-04T05:18:47.409Z,102277.80
2019-02-04T05:21:17.895Z,102280.58
2019-02-04T05:23:51.726Z,102283.23
2019-02-04T05:26:23.070Z,102290.87
2019-02-04T05:28:55.751Z,102296.88
2019-02-04T05:31:26.530Z,102291.52
2019-02-04T05:33:58.572Z,102288.63
2019-02-04T05:36:29.085Z,102300.28
2019-02-04T05:39:02.191Z,102310.05
2019-02-04T05:41:35.430Z,102309.08
2019-02-04T05:44:18.932Z,102312.05
2019-02-04T05:47:03.790Z,102304.68
2019-02-04T05:49:49.107Z,102321.41
2019-02-04T05:52:32.121Z,102318.32
2019-02-04T05:55:04.137Z,102320.05
2019-02-04T05:57:35.415Z,102324.73
2019-02-04T06:00:11.299Z,102316.94
2019-02-04T06:02:41.857Z,102322.05
2019-02-04T06:05:18.198Z,102332.02
2019-02-04T06:07:53.282Z,102325.08
2019-02-04T06:10:29.740Z,102326.73
2019-02-04T06:13:07.894Z,102326.23
2019-02-04T06:15:45.208Z,102330.06
2019-02-04T06:18:23.533Z,102320.80
2019-02-04T06:21:07.890Z,102315.12
2019-02-04T06:23:46.599Z,102322.71
2019-02-04T06:26:18.703Z,102316.34
2019-02-04T06:28:50.050Z,102315.45
2019-02-04T06:31:24.335Z,102316.28
2019-02-04T06:33:56.268Z,102319.94
2019-02-04T06:36:41.661Z,102319.45
2019-02-04T06:39:13.338Z,102323.33
2019-02-04T06:41:49.993Z,102328.37
2019-02-04T06:44:22.553Z,102325.94
2019-02-04T06:46:56.179Z,102323.55
2019-02-04T06:49:29.559Z,102319.73
2019-02-04T06:52:02.922Z,102318.37
2019-02-04T06:54:38.300Z,102323.83
2019-02-04T06:57:10.640Z,102322.11
2019-02-04T06:59:59.039Z,102320.80
2019-02-04T07:02:33.957Z,102316.16
2019-02-04T07:05:07.562Z,102324.98
2019-02-04T07:07:39.435Z,102313.20
2019-02-04T07:10:17.911Z,102305.92
2019-02-04T07:12:50.436Z,102311.83
2019-02-04T07:15:22.878Z,102314.51
2019-02-04T07:17:53.544Z,102319.97
2019-02-04T07:20:29.157Z,102316.81
2019-02-04T07:23:03.029Z,102317.70
2019-02-04T07:25:37.013Z,102317.96
2019-02-04T07:28:11.817Z,102310.41
2019-02-04T07:30:43.174Z,102297.70
2019-02-04T07:33:15.006Z,102300.88
2019-02-04T07:35:45.225Z,102302.95
2019-02-04T07:38:16.423Z,102300.05
2019-02-04T07:40:50.006Z,102296.91
2019-02-04T07:43:25.061Z,102298.74
2019-02-04T07:45:59.713Z,102295.69
2019-02-04T07:48:34.968Z,102302.74
2019-02-04T07:51:06.016Z,102306.73
2019-02-04T07:53:58.026Z,102304.98
2019-02-04T07:56:30.513Z,102312.20
2019-02-04T07:59:05.297Z,102307.50
2019-02-04T08:01:43.587Z,102314.16
2019-02-04T08:04:14.878Z,102322.63
2019-02-04T08:06:46.461Z,102315.23
2019-02-04T08:09:18.925Z,102318.12
2019-02-04T08:11:49.834Z,102320.52
2019-02-04T08:14:21.693Z,102322.50
2019-02-04T08:16:55.067Z,102330.42
2019-02-04T08:19:27.336Z,102325.95
2019-02-04T08:21:58.966Z,102318.18
2019-02-04T08:24:31.030Z,102318.70
2019-02-04T08:27:02.848Z,102317.98
2019-02-04T08:29:36.237Z,102321.16
2019-02-04T08:32:09.184Z,102314.92
2019-02-04T08:34:40.311Z,102314.72
2019-02-04T08:37:12.716Z,102304.95
2019-02-04T08:39:47.177Z,102296.95
2019-02-04T08:42:20.920Z,102300.47
2019-02-04T08:44:53.579Z,102292.41
2019-02-04T08:47:24.262Z,102294.63
2019-02-04T08:49:58.393Z,102281.38
2019-02-04T08:52:30.616Z,102285.77
2019-02-04T08:55:05.254Z,102283.25
2019-02-04T08:57:42.316Z,102278.48
2019-02-04T09:00:19.226Z,102274.24
2019-02-04T09:02:52.705Z,102270.59
2019-02-04T09:05:25.986Z,102272.91
2019-02-04T09:07:58.457Z,102263.33
2019-02-04T09:10:31.989Z,102259.28
2019-02-04T09:13:06.209Z,102269.77
2019-02-04T09:15:37.679Z,102267.25
2019-02-04T09:18:13.715Z,102270.41
2019-02-04T09:20:48.014Z,102271.87
2019-02-04T09:23:20.895Z,102260.45
2019-02-04T09:25:55.155Z,102266.97
2019-02-04T09:28:43.013Z,102267.73
2019-02-04T09:31:15.331Z,102263.14
2019-02-04T09:33:48.193Z,102263.69
2019-02-04T09:36:25.722Z,102268.62
2019-02-04T09:38:56.707Z,102269.05
2019-02-04T09:41:31.015Z,102267.61
2019-02-04T09:44:05.237Z,102259.45
2019-02-04T09:46:39.407Z,102253.17
2019-02-04T09:49:09.950Z,102245.72
2019-02-04T09:51:43.074Z,102243.70
2019-02-04T09:54:17.298Z,102246.22
2019-02-04T09:56:48.731Z,102243.59
2019-02-04T09:59:23.644Z,102242.67
2019-02-04T10:02:00.115Z,102240.80
2019-02-04T10:04:33.186Z,102235.04
2019-02-04T10:07:03.618Z,102242.39
2019-02-04T10:09:34.542Z,102231.13
2019-02-04T10:12:07.210Z,102231.98
2019-02-04T10:14:38.576Z,102231.66
2019-02-04T10:17:09.571Z,102230.61
2019-02-04T10:19:42.912Z,102236.98
2019-02-04T10:22:18.748Z,102232.84
2019-02-04T10:24:50.127Z,102234.64
2019-02-04T10:27:23.565Z,102230.95
2019-02-04T10:29:56.215Z,102233.50
2019-02-04T10:32:30.837Z,102230.27
2019-02-04T10:35:16.342Z,102221.54
2019-02-04T10:37:46.633Z,102217.28
2019-02-04T10:40:21.688Z,102218.81
2019-02-04T10:42:52.231Z,102217.63
2019-02-04T10:45:23.504Z,102216.94
2019-02-04T10:47:58.734Z,102221.30
2019-02-04T10:50:32.084Z,102218.39
2019-02-04T10:53:04.732Z,102215.86
2019-02-04T10:55:35.422Z,102211.26
2019-02-04T10:58:11.397Z,102216.59
2019-02-04T11:00:44.457Z,102222.42
2019-02-04T11:03:20.080Z,102218.74
2019-02-04T11:05:54.467Z,102217.39
2019-02-04T11:08:26.569Z,102219.45
2019-02-04T11:10:59.590Z,102209.09
2019-02-04T11:13:30.237Z,102209.37
2019-02-04T11:16:05.200Z,102208.12
2019-02-04T11:18:37.017Z,102208.84
2019-02-04T11:21:07.800Z,102205.36
2019-02-04T11:23:41.340Z,102201.11
2019-02-04T11:26:11.441Z,102205.97
2019-02-04T11:28:45.565Z,102189.45
2019-02-04T11:31:17.064Z,102183.03
2019-02-04T11:33:51.472Z,102179.07
2019-02-04T11:36:25.033Z,102177.53
2019-02-04T11:39:04.092Z,102182.20
2019-02-04T11:41:40.922Z,102176.72
2019-02-04T11:44:13.799Z,102171.10
2019-02-04T11:46:49.687Z,102172.87
2019-02-04T11:49:30.343Z,102157.39
2019-02-04T11:52:07.822Z,102154.30
2019-02-04T11:54:46.542Z,102155.30
2019-02-04T11:57:17.192Z,102154.95
2019-02-04T11:59:57.452Z,102146.56
2019-02-04T12:02:34.589Z,102145.61
2019-02-04T12:05:05.886Z,102146.17
2019-02-04T12:07:41.805Z,102148.40
2019-02-04T12:10:46.226Z,102150.52
2019-02-04T12:13:19.641Z,102142.36
2019-02-04T12:15:51.692Z,102146.94
2019-02-04T12:18:26.196Z,102152.03
2019-02-04T12:21:28.421Z,102148.64
2019-02-04T12:24:02.886Z,102144.03
2019-02-04T12:26:36.793Z,102131.50
2019-02-04T12:29:08.735Z,102138.62
2019-02-04T12:31:42.050Z,102130.27
2019-02-04T12:34:15.983Z,102140.68
2019-02-04T12:36:51.180Z,102105.81
2019-02-04T12:39:30.319Z,102147.34
2019-02-04T12:42:20.174Z,102146.89
2019-02-04T12:45:00.539Z,102147.30
2019-02-04T12:47:43.780Z,102151.78
2019-02-04T12:50:24.122Z,102143.30
2019-02-04T12:53:00.388Z,102142.04
2019-02-04T12:55:39.466Z,102142.02
2019-02-04T12:58:11.494Z,102135.88
2019-02-04T13:00:43.872Z,102138.48
2019-02-04T13:03:15.354Z,102136.30
2019-02-04T13:05:49.014Z,102126.62
2019-02-04T13:08:25.390Z,102128.37
2019-02-04T13:11:07.744Z,102126.95
2019-02-04T13:13:45.181Z,102123.94
2019-02-04T13:16:17.609Z,102126.62
2019-02-04T13:18:58.911Z,102134.38
2019-02-04T13:21:45.565Z,102125.27
2019-02-04T13:24:14.874Z,102120.86
2019-02-04T13:27:01.049Z,102121.70
2019-02-04T13:29:33.299Z,102128.28
2019-02-04T13:32:08.967Z,102115.96
2019-02-04T13:34:41.385Z,102123.35
2019-02-04T13:37:14.794Z,102119.49
2019-02-04T13:39:49.273Z,102116.39
2019-02-04T13:42:21.752Z,102106.66
2019-02-04T13:44:59.027Z,102104.54
2019-02-04T13:47:31.622Z,102100.11
2019-02-04T13:50:05.642Z,102102.35
2019-02-04T13:52:40.511Z,102106.75
2019-02-04T13:55:16.608Z,102108.52
2019-02-04T13:57:51.859Z,102102.31
2019-02-04T14:00:27.127Z,102102.34
2019-02-04T14:03:05.751Z,102100.59
2019-02-04T14:05:38.304Z,102095.59
2019-02-04T14:08:09.098Z,102094.84
2019-02-04T14:10:49.140Z,102096.73
2019-02-04T14:13:25.370Z,102090.86
2019-02-04T14:16:21.543Z,102087.30
2019-02-04T14:19:00.525Z,102083.48
2019-02-04T14:21:39.470Z,102091.12
2019-02-04T14:24:13.825Z,102084.69
2019-02-04T14:26:47.700Z,102083.31
2019-02-04T14:29:20.408Z,102081.50
2019-02-04T14:31:50.675Z,102080.70
2019-02-04T14:34:28.473Z,102075.83
2019-02-04T14:36:59.495Z,102075.73
2019-02-04T14:39:32.792Z,102069.79
2019-02-04T14:42:12.187Z,102067.03
2019-02-04T14:45:20.555Z,102059.77
2019-02-04T14:48:20.992Z,102062.61
2019-02-04T14:51:24.856Z,102067.45
2019-02-04T14:54:38.234Z,102061.89
2019-02-04T14:57:28.545Z,102063.01
2019-02-04T15:00:55.299Z,102046.46
2019-02-04T15:04:09.781Z,102053.84
2019-02-04T15:07:32.523Z,102069.06
2019-02-04T15:10:54.076Z,102058.85
2019-02-04T15:14:06.124Z,102058.78
2019-02-04T15:17:10.603Z,102062.38
2019-02-04T15:20:15.646Z,102054.91
2019-02-04T15:23:47.496Z,102054.70
2019-02-04T15:26:50.922Z,102053.48
2019-02-04T15:29:46.168Z,102052.38
2019-02-04T15:32:29.352Z,102057.86
2019-02-04T15:35:34.396Z,102059.39
2019-02-04T15:38:43.496Z,102049.92
2019-02-04T15:41:57.775Z,102050.36
2019-02-04T15:45:00.372Z,102057.56
2019-02-04T15:47:44.763Z,102052.05
2019-02-04T15:50:47.969Z,102054.22
2019-02-04T15:53:21.734Z,102053.36
2019-02-04T15:55:57.839Z,102053.75
2019-02-04T15:58:31.417Z,102055.48
2019-02-04T16:01:04.929Z,102050.81
2019-02-04T16:03:45.279Z,102051.77
2019-02-04T16:06:19.518Z,102045.85
2019-02-04T16:08:54.185Z,102052.66
2019-02-04T16:11:47.603Z,102059.22
2019-02-04T16:14:29.517Z,102064.61
2019-02-04T16:17:01.712Z,102066.97
2019-02-04T16:19:33.253Z,102067.17
2019-02-04T16:22:06.551Z,102060.94
2019-02-04T16:24:38.950Z,102073.87
2019-02-04T16:27:12.100Z,102069.63
2019-02-04T16:29:49.304Z,102060.80
2019-02-04T16:32:27.519Z,102056.98
2019-02-04T16:35:04.914Z,102061.16
2019-02-04T16:37:40.566Z,102060.42
2019-02-04T16:40:15.201Z,102056.03
2019-02-04T16:42:57.632Z,102050.72
2019-02-04T16:45:30.515Z,102054.38
2019-02-04T16:48:01.380Z,102058.55
2019-02-04T16:50:33.284Z,102060.78
2019-02-04T16:53:10.502Z,102059.55
2019-02-04T16:55:42.474Z,102070.26
2019-02-04T16:58:16.699Z,102062.38
2019-02-04T17:00:49.549Z,102068.33
2019-02-04T17:03:24.612Z,102073.59
2019-02-04T17:05:54.912Z,102066.23
2019-02-04T17:08:27.596Z,102068.22
2019-02-04T17:11:02.522Z,102074.84
2019-02-04T17:13:35.239Z,102066.36
2019-02-04T17:16:09.380Z,102062.00
2019-02-04T17:18:41.559Z,102064.59
2019-02-04T17:21:18.033Z,102060.94
2019-02-04T17:23:52.064Z,102061.61
2019-02-04T17:26:23.398Z,102067.30
2019-02-04T17:29:02.442Z,102059.19
2019-02-04T17:31:55.284Z,102045.08
2019-02-04T17:34:28.563Z,102037.25
2019-02-04T17:37:00.759Z,102044.77
2019-02-04T17:39:33.664Z,102048.84
2019-02-04T17:42:06.354Z,102049.56
2019-02-04T17:44:37.663Z,102053.87
2019-02-04T17:47:08.947Z,102058.10
2019-02-04T17:49:40.705Z,102055.12
2019-02-04T17:52:15.020Z,102040.55
2019-02-04T17:54:45.700Z,102038.11
2019-02-04T17:57:21.740Z,102025.79
2019-02-04T17:59:54.174Z,102022.30
2019-02-04T18:02:54.145Z,102019.44
2019-02-04T18:05:35.363Z,102020.59
2019-02-04T18:08:18.817Z,102019.73
2019-02-04T18:10:50.579Z,102010.84
2019-02-04T18:16:28.422Z,102031.48
2019-02-04T18:19:22.768Z,102030.70
2019-02-04T18:21:57.806Z,102033.31
2019-02-04T18:24:33.218Z,102039.57
2019-02-04T18:27:06.372Z,102027.47
2019-02-04T18:29:42.245Z,102023.35
2019-02-04T18:32:18.724Z,102028.81
2019-02-04T18:35:04.183Z,102030.81
2019-02-04T18:37:35.561Z,102027.38
2019-02-04T18:40:10.901Z,102032.58
2019-02-04T18:42:48.459Z,102026.64
2019-02-04T18:45:27.676Z,102030.13
2019-02-04T18:48:05.904Z,102037.22
2019-02-04T18:50:38.827Z,102030.86
2019-02-04T18:53:12.614Z,102032.80
2019-02-04T18:55:43.939Z,102032.08
2019-02-04T18:58:14.170Z,102023.42
2019-02-04T19:00:45.182Z,102029.77
2019-02-04T19:03:18.274Z,102027.63
2019-02-04T19:05:58.156Z,102024.48
2019-02-04T19:08:41.880Z,102021.32
2019-02-04T19:11:42.418Z,102017.08
2019-02-04T19:14:22.307Z,102024.08
2019-02-04T19:17:00.554Z,102017.11
2019-02-04T19:19:47.453Z,102013.63
2019-02-04T19:22:42.022Z,102017.16
2019-02-04T19:25:14.213Z,102011.69
2019-02-04T19:27:44.415Z,102008.18
2019-02-04T19:30:43.044Z,102010.86
2019-02-04T19:33:13.757Z,101999.77
2019-02-04T19:35:45.929Z,101997.31
2019-02-04T19:38:18.351Z,101994.91
2019-02-04T19:40:49.491Z,101992.91
2019-02-04T19:43:21.150Z,102002.44
2019-02-04T19:45:52.190Z,101996.48
2019-02-04T19:48:26.821Z,101995.86
2019-02-04T19:50:59.764Z,102005.27
2019-02-04T19:53:31.517Z,102009.31
2019-02-04T19:56:04.419Z,102006.48
2019-02-04T19:58:39.167Z,102006.11
2019-02-04T20:01:14.395Z,102002.62
2019-02-04T20:03:47.195Z,102004.83
2019-02-04T20:06:19.435Z,102002.23
2019-02-04T20:08:52.422Z,102002.99
2019-02-04T20:11:24.926Z,102005.14
2019-02-04T20:13:55.946Z,102003.28
2019-02-04T20:16:27.220Z,102017.08
2019-02-04T20:18:57.842Z,102010.28
2019-02-04T20:21:28.151Z,102014.98
2019-02-04T20:24:01.122Z,102012.40
2019-02-04T20:26:34.426Z,102019.05
2019-02-04T20:29:05.042Z,102021.05
2019-02-04T20:31:36.329Z,102016.00
2019-02-04T20:34:08.014Z,102022.08
2019-02-04T20:36:42.176Z,102017.44
2019-02-04T20:39:19.251Z,102011.58
2019-02-04T20:41:52.695Z,102011.22
2019-02-04T20:44:36.063Z,102014.36
2019-02-04T20:47:22.550Z,102012.02
2019-02-04T20:50:04.431Z,102011.04
2019-02-04T20:52:40.675Z,102022.39
2019-02-04T20:55:17.236Z,102021.64
2019-02-04T20:57:56.129Z,102028.36
2019-02-04T21:00:30.342Z,102029.38
2019-02-04T21:03:06.806Z,102029.36
2019-02-04T21:05:40.276Z,102031.42
2019-02-04T21:08:14.841Z,102034.00
2019-02-04T21:10:51.167Z,102042.94
2019-02-04T21:13:38.726Z,102038.99
2019-02-04T21:16:15.149Z,102043.78
2019-02-04T21:18:53.736Z,102052.08
2019-02-04T21:21:31.803Z,102054.03
2019-02-04T21:24:12.756Z,102058.52
2019-02-04T21:26:47.442Z,102056.09
2019-02-04T21:29:35.360Z,102057.49
2019-02-04T21:32:10.487Z,102063.21
2019-02-04T21:34:42.516Z,102063.23
2019-02-04T21:37:15.762Z,102064.59
2019-02-04T21:39:48.131Z,102066.34
2019-02-04T21:42:19.943Z,102068.64
2019-02-04T21:44:51.180Z,102075.91
2019-02-04T21:47:24.162Z,102077.77
2019-02-04T21:50:00.114Z,102066.76
2019-02-04T21:52:37.293Z,102061.55
2019-02-04T21:55:10.881Z,102051.93
2019-02-04T21:57:45.139Z,102069.77
2019-02-04T22:00:33.016Z,102073.39
2019-02-04T22:03:04.133Z,102083.48
2019-02-04T22:05:35.858Z,102079.30
2019-02-04T22:08:09.560Z,102072.98
2019-02-04T22:10:45.911Z,102076.78
2019-02-04T22:13:28.194Z,102078.17
2019-02-04T22:16:03.678Z,102072.92
2019-02-04T22:18:36.471Z,102076.20
2019-02-04T22:21:12.541Z,102082.26
2019-02-04T22:23:48.085Z,102076.47
2019-02-04T22:26:22.754Z,102069.75
2019-02-04T22:28:54.354Z,102070.78
2019-02-04T22:31:28.352Z,102077.27
2019-02-04T22:34:01.478Z,102067.60
2019-02-04T22:36:32.826Z,102074.48
2019-02-04T22:39:03.881Z,102072.58
2019-02-04T22:41:38.602Z,102074.69
2019-02-04T22:44:15.069Z,102083.31
2019-02-04T22:46:48.759Z,102078.59
2019-02-04T22:49:21.539Z,102077.19
2019-02-04T22:52:00.631Z,102077.45
2019-02-04T22:54:34.162Z,102076.88
2019-02-04T22:57:06.587Z,102078.80
2019-02-04T22:59:39.435Z,102077.84
2019-02-04T23:02:13.425Z,102084.64
2019-02-04T23:04:45.724Z,102084.31
2019-02-04T23:07:19.735Z,102093.12
2019-02-04T23:10:15.055Z,102099.54
2019-02-04T23:12:50.558Z,102095.13
2019-02-04T23:15:22.109Z,102095.39
2019-02-04T23:17:57.249Z,102085.78
2019-02-04T23:20:28.298Z,102083.34
2019-02-04T23:23:00.548Z,102086.03
2019-02-04T23:25:43.039Z,102092.02
2019-02-04T23:28:11.509Z,102083.06
2019-02-04T23:30:50.352Z,102079.23
2019-02-04T23:33:33.835Z,102085.89
2019-02-04T23:36:17.266Z,102087.70
2019-02-04T23:38:50.380Z,102084.09
2019-02-04T23:41:20.987Z,102087.54
2019-02-04T23:43:53.670Z,102087.50
2019-02-04T23:46:26.880Z,102086.47
2019-02-04T23:49:03.132Z,102085.88
2019-02-04T23:51:36.458Z,102083.06
2019-02-04T23:54:07.570Z,102083.36
2019-02-04T23:56:42.408Z,102085.87
2019-02-04T23:59:15.942Z,102074.14
